Time;durP1;ratioP1;P1;durP2;ratioP2;P2;SDS_P1;SDS_P2;PMS_P1;PMS_P2;Temp;Humidity;BMP_temperature;BMP_pressure;BME280_temperature;BME280_humidity;BME280_pressure;Samples;Min_cycle;Max_cycle;Signal;HPM_P1;HPM_P2
2021/11/12 06:17:21;;;;;;;26.27;19.42;;;16.10;69.10;;;;;;5113846;24;20090;-74
2021/11/12 06:19:47;;;;;;;25.50;18.50;;;16.20;69.40;;;;;;4828313;29;20120;-74
2021/11/12 06:22:13;;;;;;;26.25;19.05;;;16.20;69.40;;;;;;4829385;29;20046;-74
2021/11/12 06:24:39;;;;;;;29.92;19.52;;;16.20;69.50;;;;;;4828982;29;20472;-78
2021/11/12 06:27:06;;;;;;;23.63;16.83;;;16.40;69.10;;;;;;4829417;29;20066;-75
2021/11/12 06:29:33;;;;;;;24.60;17.13;;;16.50;68.20;;;;;;4843919;29;20053;-77
2021/11/12 06:31:58;;;;;;;22.02;14.95;;;16.70;68.20;;;;;;4850578;29;20120;-75
2021/11/12 06:34:24;;;;;;;21.70;14.73;;;16.90;68.20;;;;;;4849453;29;20157;-81
2021/11/12 06:36:51;;;;;;;20.75;14.35;;;17.10;68.40;;;;;;4844944;29;20054;-75
2021/11/12 06:39:18;;;;;;;17.42;13.15;;;17.20;68.70;;;;;;4845227;29;20133;-74
2021/11/12 06:52:16;;;;;;;15.82;11.07;;;17.60;69.60;;;;;;4845223;29;20066;-76
2021/11/12 06:54:45;;;;;;;19.52;11.32;;;17.60;70.40;;;;;;4835802;29;20060;-76
2021/11/12 06:57:13;;;;;;;16.25;11.95;;;17.60;69.90;;;;;;4827116;29;20054;-74
2021/11/12 06:59:39;;;;;;;19.42;11.68;;;17.60;70.00;;;;;;4844842;29;20406;-71
2021/11/12 07:02:06;;;;;;;22.55;11.40;;;17.60;70.40;;;;;;4844793;29;20054;-77
2021/11/12 07:04:32;;;;;;;22.17;10.20;;;17.50;70.70;;;;;;4844852;29;20054;-76
2021/11/12 07:06:59;;;;;;;21.38;14.48;;;17.50;71.00;;;;;;4843641;29;20070;-74
2021/11/12 07:09:25;;;;;;;19.52;11.38;;;17.30;67.90;;;;;;4843306;29;20064;-75
2021/11/12 07:11:51;;;;;;;22.50;11.45;;;17.20;70.10;;;;;;4843249;29;20069;-78
2021/11/12 07:14:17;;;;;;;20.20;10.73;;;17.20;71.10;;;;;;4848375;29;20060;-74
2021/11/12 07:16:43;;;;;;;24.73;11.65;;;17.20;71.30;;;;;;4844035;29;20050;-74
2021/11/12 07:19:09;;;;;;;22.35;12.65;;;17.20;71.00;;;;;;4855385;29;20137;-81
2021/11/12 07:21:35;;;;;;;21.20;13.43;;;17.30;70.80;;;;;;4795917;29;20514;-73
2021/11/12 07:24:02;;;;;;;21.02;13.60;;;17.30;70.70;;;;;;4822173;29;20049;-78
2021/11/12 07:26:30;;;;;;;21.25;14.93;;;17.30;70.40;;;;;;4828235;29;20050;-74
2021/11/12 07:28:57;;;;;;;26.10;15.95;;;17.30;70.30;;;;;;4843252;29;20450;-80
2021/11/12 07:31:24;;;;;;;26.38;15.88;;;17.30;70.10;;;;;;4828039;29;20050;-80
2021/11/12 07:33:50;;;;;;;24.17;17.58;;;17.30;69.80;;;;;;4843963;29;20354;-80
2021/11/12 07:36:34;;;;;;;32.50;19.65;;;17.30;69.50;;;;;;4812997;29;20068;-72
2021/11/12 07:39:08;;;;;;;24.15;17.77;;;17.30;69.10;;;;;;4843473;29;20041;-71
2021/11/12 07:44:10;;;;;;;26.65;18.00;;;17.20;69.30;;;;;;4847787;29;20054;-73
2021/11/12 07:49:04;;;;;;;23.88;18.23;;;17.10;69.60;;;;;;4830714;29;20041;-72
2021/11/12 07:51:30;;;;;;;26.38;18.58;;;17.20;69.70;;;;;;4846965;29;20482;-72
2021/11/12 07:53:56;;;;;;;24.27;16.92;;;17.10;69.30;;;;;;4846599;29;20045;-72
2021/11/12 07:56:23;;;;;;;24.27;17.00;;;17.10;69.10;;;;;;4847508;29;20046;-73
2021/11/12 07:58:50;;;;;;;23.27;16.55;;;17.00;69.20;;;;;;4847641;29;20111;-72
2021/11/12 08:01:16;;;;;;;22.20;16.08;;;17.00;69.30;;;;;;4847043;29;20484;-72
2021/11/12 08:03:44;;;;;;;20.75;15.93;;;17.00;69.20;;;;;;4846836;29;20054;-71
2021/11/12 08:06:14;;;;;;;20.52;16.08;;;16.90;69.40;;;;;;4847490;29;20049;-72
2021/11/12 08:08:43;;;;;;;22.52;15.63;;;16.90;69.40;;;;;;4847378;29;20064;-72
2021/11/12 08:11:14;;;;;;;23.83;15.80;;;16.90;69.40;;;;;;4831179;29;20049;-73
2021/11/12 08:13:55;;;;;;;22.83;14.82;;;16.80;69.50;;;;;;4831209;29;20049;-72
2021/11/12 08:19:01;;;;;;;22.60;16.35;;;16.80;70.00;;;;;;4846778;29;20450;-71
2021/11/12 08:21:37;;;;;;;20.73;16.20;;;16.50;67.40;;;;;;4846503;29;20525;-71
2021/11/12 08:29:32;;;;;;;21.42;16.38;;;16.10;68.80;;;;;;4824289;29;20062;-71
2021/11/12 08:42:07;;;;;;;25.40;17.88;;;16.00;69.00;;;;;;4847107;29;20054;-73
2021/11/12 08:44:42;;;;;;;27.35;20.02;;;16.10;68.50;;;;;;4829992;29;20060;-76
2021/11/12 08:49:41;;;;;;;27.77;20.60;;;15.80;61.90;;;;;;4846676;29;20050;-76
2021/11/12 08:52:09;;;;;;;26.30;19.63;;;15.70;61.70;;;;;;4846546;29;20046;-78
2021/11/12 08:54:37;;;;;;;31.52;21.30;;;15.60;61.80;;;;;;4845405;29;20058;-77
2021/11/12 08:57:09;;;;;;;27.73;22.40;;;15.40;61.20;;;;;;4845723;29;20173;-71
2021/11/12 08:59:36;;;;;;;31.00;21.83;;;15.40;60.60;;;;;;4831268;29;20041;-71
2021/11/12 09:02:02;;;;;;;26.48;21.98;;;15.40;60.20;;;;;;4846002;29;20081;-71
2021/11/12 09:04:28;;;;;;;31.33;22.15;;;15.30;59.70;;;;;;4846386;29;20058;-71
2021/11/12 09:06:54;;;;;;;26.73;21.02;;;15.10;60.90;;;;;;4846375;29;20061;-70
2021/11/12 09:09:20;;;;;;;25.42;18.98;;;15.10;62.10;;;;;;4846745;29;20583;-70
2021/11/12 09:11:47;;;;;;;28.90;20.25;;;15.10;62.80;;;;;;4846673;29;20053;-71
2021/11/12 09:14:18;;;;;;;22.52;16.98;;;15.30;63.00;;;;;;4846066;29;20081;-71
2021/11/12 09:16:45;;;;;;;21.40;16.67;;;15.40;62.70;;;;;;4846413;29;20050;-71
2021/11/12 09:19:14;;;;;;;23.15;16.98;;;15.50;62.60;;;;;;4845812;29;20192;-71
2021/11/12 09:21:40;;;;;;;21.52;16.58;;;15.60;62.60;;;;;;4846260;29;20054;-71
2021/11/12 09:24:06;;;;;;;21.65;16.00;;;15.80;62.80;;;;;;4845966;29;20049;-71
2021/11/12 09:26:34;;;;;;;21.05;14.95;;;15.80;62.90;;;;;;4845781;29;20346;-71
2021/11/12 09:29:00;;;;;;;20.38;14.23;;;15.90;62.90;;;;;;4846319;29;20461;-71
2021/11/12 09:31:26;;;;;;;20.58;14.07;;;15.90;63.10;;;;;;4845692;29;20049;-71
2021/11/12 09:33:53;;;;;;;18.48;15.15;;;16.00;63.20;;;;;;4845871;29;20454;-71
2021/11/12 09:36:19;;;;;;;19.48;14.20;;;16.00;63.30;;;;;;4846089;29;20058;-71
2021/11/12 09:38:44;;;;;;;17.27;13.35;;;16.10;63.50;;;;;;4846180;29;20432;-71
2021/11/12 09:41:11;;;;;;;18.17;13.25;;;16.00;63.60;;;;;;4845946;29;20126;-71
2021/11/12 09:43:38;;;;;;;16.15;13.07;;;16.10;63.80;;;;;;4845530;29;20057;-71
2021/11/12 09:46:06;;;;;;;16.15;12.43;;;16.10;64.20;;;;;;4846440;29;20046;-72
2021/11/12 09:48:31;;;;;;;17.13;12.75;;;16.10;64.50;;;;;;4845323;29;20096;-71
2021/11/12 09:50:57;;;;;;;15.18;12.38;;;16.10;64.80;;;;;;4845571;29;20082;-71
2021/11/12 09:53:23;;;;;;;14.48;11.50;;;16.20;65.10;;;;;;4845309;29;20377;-71
2021/11/12 09:55:50;;;;;;;14.57;11.30;;;16.20;65.30;;;;;;4844643;29;20129;-77
2021/11/12 09:58:16;;;;;;;15.88;12.88;;;16.20;65.50;;;;;;4829871;29;20058;-72
2021/11/12 10:00:42;;;;;;;15.48;12.88;;;16.20;65.40;;;;;;4845734;29;20381;-71
2021/11/12 10:03:10;;;;;;;17.73;12.13;;;16.30;65.30;;;;;;4845497;29;20445;-74
2021/11/12 10:05:44;;;;;;;21.20;15.38;;;16.30;65.20;;;;;;4844850;29;20393;-77
2021/11/12 10:08:30;;;;;;;22.92;18.15;;;16.30;64.00;;;;;;4844792;29;20045;-76
2021/11/12 10:11:00;;;;;;;24.42;19.10;;;16.30;61.70;;;;;;4845493;29;20116;-73
2021/11/12 10:13:33;;;;;;;22.73;19.58;;;16.20;60.60;;;;;;4829392;29;20053;-73
2021/11/12 10:19:04;;;;;;;23.73;18.10;;;16.00;59.20;;;;;;4844530;29;20062;-72
2021/11/12 10:21:41;;;;;;;25.90;18.90;;;15.90;59.30;;;;;;4845321;29;20049;-73
2021/11/12 10:24:11;;;;;;;25.70;19.73;;;15.90;59.20;;;;;;4845168;29;20050;-70
2021/11/12 10:26:37;;;;;;;22.13;18.33;;;15.80;58.60;;;;;;4844469;29;20053;-70
2021/11/12 10:29:09;;;;;;;27.67;17.95;;;15.80;59.10;;;;;;4845023;29;20347;-70
2021/11/12 10:31:44;;;;;;;20.70;15.73;;;15.80;59.80;;;;;;4844737;29;20524;-70
2021/11/12 10:34:22;;;;;;;19.30;14.30;;;15.80;59.70;;;;;;4844625;29;20103;-70
2021/11/12 10:37:00;;;;;;;19.45;13.15;;;16.00;60.00;;;;;;4845487;29;20126;-70
2021/11/12 10:39:38;;;;;;;15.48;11.95;;;16.20;60.00;;;;;;4844662;29;20061;-71
2021/11/12 10:42:10;;;;;;;15.15;11.23;;;16.50;60.00;;;;;;4844886;29;20429;-71
2021/11/12 10:44:50;;;;;;;14.93;9.48;;;16.80;59.80;;;;;;4844563;29;20053;-72
2021/11/12 10:47:17;;;;;;;12.90;9.75;;;17.10;60.30;;;;;;4844446;29;20469;-73
2021/11/12 10:49:49;;;;;;;12.98;8.18;;;17.20;59.80;;;;;;4844926;29;20050;-75
2021/11/12 10:52:28;;;;;;;14.88;9.35;;;17.30;59.90;;;;;;4844058;29;20481;-74
2021/11/12 10:55:16;;;;;;;10.48;8.07;;;17.40;59.90;;;;;;4828701;29;20064;-73
2021/11/12 10:58:01;;;;;;;10.13;7.50;;;17.50;60.20;;;;;;4844628;29;20077;-73
2021/11/12 11:00:28;;;;;;;9.82;7.03;;;17.50;60.30;;;;;;4844248;29;20470;-73
2021/11/12 11:02:57;;;;;;;9.90;6.93;;;17.50;60.60;;;;;;4844105;29;20065;-73
2021/11/12 11:05:40;;;;;;;10.75;7.03;;;17.50;60.70;;;;;;4844091;29;20068;-74
2021/11/12 11:08:17;;;;;;;10.60;6.20;;;17.60;60.80;;;;;;4843506;29;20099;-74
2021/11/12 11:10:51;;;;;;;8.50;6.18;;;17.60;61.10;;;;;;4844527;29;20115;-74
2021/11/12 11:13:25;;;;;;;8.60;6.95;;;17.60;61.20;;;;;;4844558;29;20119;-74
2021/11/12 11:15:52;;;;;;;9.80;6.30;;;17.70;61.10;;;;;;4844296;29;20062;-74
2021/11/12 11:18:37;;;;;;;15.68;10.27;;;17.70;61.40;;;;;;4812768;29;20054;-72
2021/11/12 11:23:41;;;;;;;11.93;6.50;;;17.60;61.80;;;;;;4843891;29;20474;-73
2021/11/12 11:26:07;;;;;;;8.80;5.15;;;17.70;62.00;;;;;;4843707;29;20054;-72
2021/11/12 11:28:34;;;;;;;8.02;5.05;;;17.80;61.90;;;;;;4843893;29;20057;-72
2021/11/12 11:31:08;;;;;;;8.93;5.05;;;18.00;61.80;;;;;;4843694;29;20064;-72
2021/11/12 11:33:36;;;;;;;7.30;4.38;;;18.10;61.70;;;;;;4844111;29;20064;-72
2021/11/12 11:36:03;;;;;;;9.00;4.70;;;18.20;61.60;;;;;;4843088;29;20129;-73
2021/11/12 11:38:34;;;;;;;7.97;4.57;;;18.30;61.50;;;;;;4844043;29;20058;-73
2021/11/12 11:41:01;;;;;;;8.70;3.97;;;18.40;61.50;;;;;;4843970;29;20054;-73
2021/11/12 11:43:31;;;;;;;7.03;3.97;;;18.50;61.40;;;;;;4844136;29;20087;-73
2021/11/12 11:46:02;;;;;;;6.43;4.68;;;18.50;61.30;;;;;;4844083;29;20050;-72
2021/11/12 11:48:39;;;;;;;9.98;4.45;;;18.60;61.30;;;;;;4851260;29;20070;-72
2021/11/12 11:51:07;;;;;;;7.32;4.35;;;18.60;61.20;;;;;;4852413;29;20053;-73
2021/11/12 11:53:44;;;;;;;6.20;3.67;;;18.70;61.30;;;;;;4844240;29;20058;-73
2021/11/12 11:56:19;;;;;;;5.65;4.03;;;18.70;61.30;;;;;;4838352;29;20473;-73
2021/11/12 11:58:47;;;;;;;5.97;3.95;;;18.70;61.20;;;;;;4843629;29;20469;-73
2021/11/12 12:01:15;;;;;;;5.60;3.60;;;18.70;61.40;;;;;;4843629;29;20053;-72
2021/11/12 12:03:47;;;;;;;6.72;3.53;;;18.70;61.40;;;;;;4843744;29;20064;-72
2021/11/12 12:06:18;;;;;;;5.20;3.80;;;18.70;61.50;;;;;;4844391;29;20450;-72
2021/11/12 12:09:09;;;;;;;8.25;4.10;;;18.70;61.60;;;;;;4843666;29;20058;-73
2021/11/12 12:11:53;;;;;;;7.88;3.53;;;18.70;61.60;;;;;;4844111;29;20462;-74
2021/11/12 12:14:32;;;;;;;6.10;3.97;;;18.70;61.80;;;;;;4843852;29;20060;-72
2021/11/12 12:17:10;;;;;;;6.28;3.97;;;18.70;61.70;;;;;;4843482;29;20114;-73
2021/11/12 12:19:45;;;;;;;5.65;3.70;;;18.70;61.80;;;;;;4844276;29;20070;-72
2021/11/12 13:25:39;;;;;;;7.18;5.13;;;18.50;61.20;;;;;;4828180;29;20057;-72
2021/11/12 13:28:14;;;;;;;8.52;5.25;;;18.50;61.50;;;;;;4828355;29;20093;-73
2021/11/12 13:30:49;;;;;;;7.72;5.63;;;18.40;61.50;;;;;;4828067;29;20050;-73
2021/11/12 13:33:40;;;;;;;7.47;5.68;;;18.40;61.70;;;;;;4827614;29;20086;-73
2021/11/12 13:36:23;;;;;;;8.85;5.68;;;18.30;61.70;;;;;;4828101;29;20060;-71
2021/11/12 13:39:19;;;;;;;8.40;5.53;;;18.10;62.50;;;;;;4827982;29;20086;-71
2021/11/12 13:41:49;;;;;;;7.28;5.55;;;18.10;62.30;;;;;;4828416;29;20335;-72
2021/11/12 13:44:19;;;;;;;10.75;6.18;;;18.00;62.50;;;;;;4827934;29;20358;-72
2021/11/12 13:46:56;;;;;;;10.63;6.90;;;18.00;62.50;;;;;;4827768;29;20053;-72
2021/11/12 13:49:45;;;;;;;9.40;6.40;;;18.00;62.50;;;;;;4811851;29;20062;-72
2021/11/12 13:52:27;;;;;;;8.80;6.03;;;17.90;62.70;;;;;;4827968;29;20057;-73
2021/11/12 13:55:01;;;;;;;9.75;6.80;;;17.90;62.70;;;;;;4827772;29;20127;-75
2021/11/12 13:57:27;;;;;;;;;;;17.90;62.80;;;;;;4827610;29;20047;-72
2021/11/12 14:00:03;;;;;;;10.60;6.00;;;18.00;62.90;;;;;;4829209;29;19936;-74
2021/11/12 14:03:17;;;;;;;8.15;5.53;;;18.00;62.90;;;;;;4844957;29;20109;-73
2021/11/12 14:05:56;;;;;;;10.18;5.35;;;18.10;62.80;;;;;;4789374;30;20062;-73
2021/11/12 14:08:22;;;;;;;10.07;5.68;;;18.20;62.80;;;;;;4789221;30;20089;-73
2021/11/12 14:10:51;;;;;;;9.98;5.70;;;18.30;62.80;;;;;;4823866;29;20448;-73
2021/11/12 14:13:20;;;;;;;11.63;5.63;;;18.40;62.70;;;;;;4845384;29;20446;-76
2021/11/12 14:16:15;;;;;;;10.68;6.15;;;18.50;62.60;;;;;;4829756;29;20061;-74
2021/11/12 14:27:11;;;;;;;9.38;5.45;;;18.90;62.10;;;;;;4828964;29;20127;-74
2021/11/12 14:45:42;;;;;;;18.00;8.40;;;18.90;61.80;;;;;;4826964;29;20062;-75
2021/11/12 14:48:37;;;;;;;14.85;8.02;;;18.90;61.90;;;;;;4810714;29;20062;-78
2021/11/12 14:56:13;;;;;;;12.95;8.02;;;18.90;61.90;;;;;;4845031;29;20447;-77
2021/11/12 14:58:48;;;;;;;11.93;7.53;;;18.90;62.00;;;;;;4844518;29;20132;-77
2021/11/12 15:01:19;;;;;;;16.90;7.68;;;18.90;62.00;;;;;;4844597;29;20110;-77
2021/11/12 15:03:46;;;;;;;13.48;8.20;;;18.80;62.00;;;;;;4844940;29;20048;-77
2021/11/12 15:06:19;;;;;;;18.10;7.32;;;18.80;61.90;;;;;;4844716;29;20099;-73
2021/11/12 15:08:53;;;;;;;17.48;7.82;;;18.80;62.00;;;;;;4844661;29;20050;-73
2021/11/12 15:11:23;;;;;;;18.40;7.90;;;18.80;62.10;;;;;;4844456;29;20057;-73
2021/11/12 15:13:50;;;;;;;20.55;9.18;;;18.80;62.30;;;;;;4844822;29;20457;-74
2021/11/12 15:16:20;;;;;;;16.83;8.90;;;18.80;62.00;;;;;;4844365;29;20426;-73
2021/11/12 15:18:46;;;;;;;21.60;9.43;;;18.80;61.90;;;;;;4828204;29;20077;-74
2021/11/12 15:21:18;;;;;;;19.23;9.52;;;18.70;61.80;;;;;;4844232;29;20054;-73
2021/11/12 15:33:51;;;;;;;16.27;9.77;;;18.70;61.80;;;;;;4844498;29;20476;-75
2021/11/12 15:36:17;;;;;;;15.32;9.52;;;18.70;62.40;;;;;;4843697;29;20066;-74
2021/11/12 15:39:00;;;;;;;19.05;10.13;;;18.80;61.90;;;;;;4843720;29;20068;-74
2021/11/12 15:44:11;;;;;;;18.90;9.43;;;18.80;62.10;;;;;;4827760;29;20058;-75
2021/11/12 15:46:43;;;;;;;16.50;8.48;;;18.80;62.30;;;;;;4843230;29;20046;-75
2021/11/12 15:49:09;;;;;;;17.35;8.95;;;18.80;62.40;;;;;;4844137;29;20070;-76
2021/11/12 16:15:44;;;;;;;17.35;9.15;;;18.80;63.50;;;;;;4847641;29;20045;-75
2021/11/12 16:18:35;;;;;;;16.90;10.32;;;18.70;63.90;;;;;;4846196;29;20202;-76
2021/11/12 16:21:30;;;;;;;18.33;9.45;;;18.70;64.30;;;;;;4846752;29;20130;-76
2021/11/12 16:26:37;;;;;;;25.52;15.18;;;18.70;64.80;;;;;;4846887;29;20378;-82
2021/11/12 16:31:40;;;;;;;22.70;12.88;;;18.70;70.20;;;;;;4843480;29;20069;-77
2021/11/12 16:34:13;;;;;;;25.90;14.50;;;18.70;68.50;;;;;;4847307;29;20124;-76
2021/11/12 16:37:01;;;;;;;23.33;16.40;;;18.70;67.40;;;;;;4847130;29;20117;-71
2021/11/12 16:39:38;;;;;;;28.98;17.77;;;18.70;66.00;;;;;;4841969;29;20115;-72
2021/11/12 16:47:29;;;;;;;24.50;16.33;;;18.60;63.80;;;;;;4847418;29;20058;-75
2021/11/12 16:56:07;;;;;;;24.77;15.13;;;18.70;64.90;;;;;;4845934;29;20378;-76
2021/11/12 17:03:14;;;;;;;29.15;13.32;;;18.60;65.00;;;;;;4845871;29;20480;-73
2021/11/12 17:05:50;;;;;;;24.60;13.35;;;18.60;64.80;;;;;;4846419;29;20114;-74
2021/11/12 17:14:24;;;;;;;26.92;12.82;;;18.60;65.20;;;;;;4799779;29;20144;-73
2021/11/12 17:19:46;;;;;;;32.60;13.00;;;18.60;65.50;;;;;;4828192;29;20051;-75
2021/11/12 17:47:09;;;;;;;28.05;12.20;;;18.30;66.80;;;;;;4827200;29;20061;-73
2021/11/12 17:50:04;;;;;;;24.77;12.00;;;18.20;66.80;;;;;;4811811;29;20134;-76
2021/11/12 18:01:38;;;;;;;30.23;14.73;;;18.10;66.90;;;;;;4827260;29;20155;-73
2021/11/12 18:03:19;;;;;;;35.70;18.15;;;18.20;64.60;;;;;;4827003;29;20054;-73
2021/11/12 18:05:49;;;;;;;33.95;18.52;;;18.20;64.50;;;;;;4827465;29;20467;-74
